sensor_id;sensor_type;location;lat;lon;timestamp;P1;durP1;ratioP1;P2;durP2;ratioP2
6823;SDS011;58633;49.470;11.004;2022-10-16T00:01:15;1.70;;;1.60;;
6823;SDS011;58633;49.470;11.004;2022-10-16T00:03:42;2.17;;;1.90;;
6823;SDS011;58633;49.470;11.004;2022-10-16T00:06:09;3.80;;;1.77;;
6823;SDS011;58633;49.470;11.004;2022-10-16T00:08:35;3.13;;;1.90;;
6823;SDS011;58633;49.470;11.004;2022-10-16T00:11:09;3.10;;;1.80;;
6823;SDS011;58633;49.470;11.004;2022-10-16T00:13:37;3.17;;;1.63;;
6823;SDS011;58633;49.470;11.004;2022-10-16T00:16:05;2.17;;;1.70;;
6823;SDS011;58633;49.470;11.004;2022-10-16T00:18:31;3.90;;;1.63;;
6823;SDS011;58633;49.470;11.004;2022-10-16T00:21:04;2.20;;;1.85;;
6823;SDS011;58633;49.470;11.004;2022-10-16T00:23:35;2.22;;;1.80;;
6823;SDS011;58633;49.470;11.004;2022-10-16T00:26:02;2.00;;;1.80;;
6823;SDS011;58633;49.470;11.004;2022-10-16T00:28:30;2.55;;;2.10;;
6823;SDS011;58633;49.470;11.004;2022-10-16T00:30:56;3.97;;;1.90;;
6823;SDS011;58633;49.470;11.004;2022-10-16T00:33:21;4.28;;;2.05;;
6823;SDS011;58633;49.470;11.004;2022-10-16T00:35:47;2.20;;;1.80;;
6823;SDS011;58633;49.470;11.004;2022-10-16T00:38:13;3.15;;;1.85;;
6823;SDS011;58633;49.470;11.004;2022-10-16T00:40:39;3.35;;;2.10;;
6823;SDS011;58633;49.470;11.004;2022-10-16T00:43:12;4.63;;;2.50;;
6823;SDS011;58633;49.470;11.004;2022-10-16T00:45:57;3.05;;;2.00;;
6823;SDS011;58633;49.470;11.004;2022-10-16T00:48:23;2.05;;;1.92;;
6823;SDS011;58633;49.470;11.004;2022-10-16T00:50:48;2.22;;;1.90;;
6823;SDS011;58633;49.470;11.004;2022-10-16T00:53:14;4.05;;;2.10;;
6823;SDS011;58633;49.470;11.004;2022-10-16T00:55:41;3.88;;;1.73;;
6823;SDS011;58633;49.470;11.004;2022-10-16T00:58:06;2.20;;;2.00;;
6823;SDS011;58633;49.470;11.004;2022-10-16T01:00:32;3.85;;;2.13;;
6823;SDS011;58633;49.470;11.004;2022-10-16T01:02:59;2.45;;;1.98;;
6823;SDS011;58633;49.470;11.004;2022-10-16T01:05:33;4.05;;;2.20;;
6823;SDS011;58633;49.470;11.004;2022-10-16T01:08:13;7.45;;;2.30;;
6823;SDS011;58633;49.470;11.004;2022-10-16T01:11:11;2.08;;;1.83;;
6823;SDS011;58633;49.470;11.004;2022-10-16T01:13:43;4.28;;;2.13;;
6823;SDS011;58633;49.470;11.004;2022-10-16T01:16:13;3.65;;;2.30;;
6823;SDS011;58633;49.470;11.004;2022-10-16T01:18:48;5.38;;;2.22;;
6823;SDS011;58633;49.470;11.004;2022-10-16T01:21:25;2.65;;;2.00;;
6823;SDS011;58633;49.470;11.004;2022-10-16T01:26:48;4.28;;;2.00;;
6823;SDS011;58633;49.470;11.004;2022-10-16T01:30:13;5.53;;;2.10;;
6823;SDS011;58633;49.470;11.004;2022-10-16T01:35:30;2.00;;;1.90;;
6823;SDS011;58633;49.470;11.004;2022-10-16T01:40:58;2.28;;;2.08;;
6823;SDS011;58633;49.470;11.004;2022-10-16T01:43:29;2.65;;;1.73;;
6823;SDS011;58633;49.470;11.004;2022-10-16T01:46:01;6.53;;;2.10;;
6823;SDS011;58633;49.470;11.004;2022-10-16T01:48:27;4.15;;;2.33;;
6823;SDS011;58633;49.470;11.004;2022-10-16T01:50:59;1.90;;;1.80;;
6823;SDS011;58633;49.470;11.004;2022-10-16T01:53:31;3.60;;;1.95;;
6823;SDS011;58633;49.470;11.004;2022-10-16T01:55:57;2.22;;;1.95;;
6823;SDS011;58633;49.470;11.004;2022-10-16T01:58:25;3.13;;;2.25;;
6823;SDS011;58633;49.470;11.004;2022-10-16T02:00:52;2.42;;;2.22;;
6823;SDS011;58633;49.470;11.004;2022-10-16T02:03:19;4.40;;;2.10;;
6823;SDS011;58633;49.470;11.004;2022-10-16T02:05:52;3.83;;;2.03;;
6823;SDS011;58633;49.470;11.004;2022-10-16T02:08:20;3.33;;;2.30;;
6823;SDS011;58633;49.470;11.004;2022-10-16T02:10:47;4.15;;;2.60;;
6823;SDS011;58633;49.470;11.004;2022-10-16T02:16:05;2.30;;;2.20;;
6823;SDS011;58633;49.470;11.004;2022-10-16T02:18:32;3.45;;;1.92;;
6823;SDS011;58633;49.470;11.004;2022-10-16T02:20:59;4.93;;;1.80;;
6823;SDS011;58633;49.470;11.004;2022-10-16T02:23:51;2.83;;;1.83;;
6823;SDS011;58633;49.470;11.004;2022-10-16T02:26:41;5.32;;;2.05;;
6823;SDS011;58633;49.470;11.004;2022-10-16T02:29:14;2.67;;;1.98;;
6823;SDS011;58633;49.470;11.004;2022-10-16T02:31:46;3.33;;;2.03;;
6823;SDS011;58633;49.470;11.004;2022-10-16T02:34:16;4.57;;;1.90;;
6823;SDS011;58633;49.470;11.004;2022-10-16T02:36:43;4.10;;;2.20;;
6823;SDS011;58633;49.470;11.004;2022-10-16T02:39:10;2.72;;;1.70;;
6823;SDS011;58633;49.470;11.004;2022-10-16T02:41:36;2.80;;;2.08;;
6823;SDS011;58633;49.470;11.004;2022-10-16T02:44:02;3.25;;;2.08;;
6823;SDS011;58633;49.470;11.004;2022-10-16T02:46:28;2.15;;;1.98;;
6823;SDS011;58633;49.470;11.004;2022-10-16T02:48:53;3.15;;;1.80;;
6823;SDS011;58633;49.470;11.004;2022-10-16T02:51:19;3.65;;;1.88;;
6823;SDS011;58633;49.470;11.004;2022-10-16T02:53:44;2.10;;;1.90;;
6823;SDS011;58633;49.470;11.004;2022-10-16T02:56:10;2.72;;;1.80;;
6823;SDS011;58633;49.470;11.004;2022-10-16T02:58:35;3.78;;;1.92;;
6823;SDS011;58633;49.470;11.004;2022-10-16T03:01:01;2.83;;;2.08;;
6823;SDS011;58633;49.470;11.004;2022-10-16T03:03:27;2.53;;;2.15;;
6823;SDS011;58633;49.470;11.004;2022-10-16T03:05:52;2.03;;;1.77;;
6823;SDS011;58633;49.470;11.004;2022-10-16T03:08:18;3.33;;;1.90;;
6823;SDS011;58633;49.470;11.004;2022-10-16T03:10:48;3.88;;;1.80;;
6823;SDS011;58633;49.470;11.004;2022-10-16T03:13:14;2.10;;;1.77;;
6823;SDS011;58633;49.470;11.004;2022-10-16T03:15:39;6.05;;;2.00;;
6823;SDS011;58633;49.470;11.004;2022-10-16T03:18:05;2.63;;;2.28;;
6823;SDS011;58633;49.470;11.004;2022-10-16T03:20:30;4.38;;;2.22;;
6823;SDS011;58633;49.470;11.004;2022-10-16T03:22:56;3.45;;;2.30;;
6823;SDS011;58633;49.470;11.004;2022-10-16T03:25:21;2.95;;;2.13;;
6823;SDS011;58633;49.470;11.004;2022-10-16T03:27:47;4.55;;;2.30;;
6823;SDS011;58633;49.470;11.004;2022-10-16T03:30:12;2.67;;;2.20;;
6823;SDS011;58633;49.470;11.004;2022-10-16T03:32:38;2.50;;;2.30;;
6823;SDS011;58633;49.470;11.004;2022-10-16T03:35:04;3.20;;;2.13;;
6823;SDS011;58633;49.470;11.004;2022-10-16T03:37:30;2.90;;;2.20;;
6823;SDS011;58633;49.470;11.004;2022-10-16T03:39:55;2.10;;;1.95;;
6823;SDS011;58633;49.470;11.004;2022-10-16T03:42:21;3.20;;;1.95;;
6823;SDS011;58633;49.470;11.004;2022-10-16T03:44:46;3.90;;;2.05;;
6823;SDS011;58633;49.470;11.004;2022-10-16T03:47:12;2.17;;;2.03;;
6823;SDS011;58633;49.470;11.004;2022-10-16T03:49:37;3.42;;;1.80;;
6823;SDS011;58633;49.470;11.004;2022-10-16T03:52:03;2.78;;;2.30;;
6823;SDS011;58633;49.470;11.004;2022-10-16T03:54:28;3.67;;;1.85;;
6823;SDS011;58633;49.470;11.004;2022-10-16T03:56:54;2.78;;;1.80;;
6823;SDS011;58633;49.470;11.004;2022-10-16T03:59:19;2.25;;;1.90;;
6823;SDS011;58633;49.470;11.004;2022-10-16T04:01:45;2.33;;;1.90;;
6823;SDS011;58633;49.470;11.004;2022-10-16T04:04:10;2.25;;;2.03;;
6823;SDS011;58633;49.470;11.004;2022-10-16T04:06:36;3.30;;;2.00;;
6823;SDS011;58633;49.470;11.004;2022-10-16T04:09:02;3.00;;;1.80;;
6823;SDS011;58633;49.470;11.004;2022-10-16T04:11:27;4.38;;;2.10;;
6823;SDS011;58633;49.470;11.004;2022-10-16T04:13:53;1.73;;;1.60;;
6823;SDS011;58633;49.470;11.004;2022-10-16T04:16:19;1.90;;;1.80;;
6823;SDS011;58633;49.470;11.004;2022-10-16T04:18:45;2.28;;;1.90;;
6823;SDS011;58633;49.470;11.004;2022-10-16T04:21:10;2.80;;;2.00;;
6823;SDS011;58633;49.470;11.004;2022-10-16T04:23:36;2.50;;;1.90;;
6823;SDS011;58633;49.470;11.004;2022-10-16T04:26:01;3.58;;;2.10;;
6823;SDS011;58633;49.470;11.004;2022-10-16T04:28:27;3.17;;;1.80;;
6823;SDS011;58633;49.470;11.004;2022-10-16T04:30:53;3.17;;;1.83;;
6823;SDS011;58633;49.470;11.004;2022-10-16T04:33:19;2.72;;;2.30;;
6823;SDS011;58633;49.470;11.004;2022-10-16T04:35:44;3.20;;;1.95;;
6823;SDS011;58633;49.470;11.004;2022-10-16T04:38:10;2.03;;;1.83;;
6823;SDS011;58633;49.470;11.004;2022-10-16T04:40:35;4.00;;;2.00;;
6823;SDS011;58633;49.470;11.004;2022-10-16T04:43:02;2.10;;;1.90;;
6823;SDS011;58633;49.470;11.004;2022-10-16T04:45:28;2.83;;;1.75;;
6823;SDS011;58633;49.470;11.004;2022-10-16T04:47:58;1.92;;;1.80;;
6823;SDS011;58633;49.470;11.004;2022-10-16T04:50:23;2.78;;;2.30;;
6823;SDS011;58633;49.470;11.004;2022-10-16T04:52:49;1.80;;;1.70;;
6823;SDS011;58633;49.470;11.004;2022-10-16T04:55:15;3.05;;;1.80;;
6823;SDS011;58633;49.470;11.004;2022-10-16T04:57:40;1.88;;;1.77;;
6823;SDS011;58633;49.470;11.004;2022-10-16T05:00:06;5.10;;;1.92;;
6823;SDS011;58633;49.470;11.004;2022-10-16T05:02:33;3.63;;;1.70;;
6823;SDS011;58633;49.470;11.004;2022-10-16T05:04:58;2.50;;;1.90;;
6823;SDS011;58633;49.470;11.004;2022-10-16T05:07:24;4.50;;;1.80;;
6823;SDS011;58633;49.470;11.004;2022-10-16T05:09:50;1.92;;;1.70;;
6823;SDS011;58633;49.470;11.004;2022-10-16T05:12:15;2.55;;;1.70;;
6823;SDS011;58633;49.470;11.004;2022-10-16T05:14:41;2.22;;;1.92;;
6823;SDS011;58633;49.470;11.004;2022-10-16T05:17:06;1.80;;;1.70;;
6823;SDS011;58633;49.470;11.004;2022-10-16T05:19:32;4.53;;;2.13;;
6823;SDS011;58633;49.470;11.004;2022-10-16T05:21:57;2.20;;;1.90;;
6823;SDS011;58633;49.470;11.004;2022-10-16T05:24:23;3.90;;;1.92;;
6823;SDS011;58633;49.470;11.004;2022-10-16T05:26:49;4.63;;;1.85;;
6823;SDS011;58633;49.470;11.004;2022-10-16T05:29:15;2.53;;;1.83;;
6823;SDS011;58633;49.470;11.004;2022-10-16T05:31:40;1.98;;;1.88;;
6823;SDS011;58633;49.470;11.004;2022-10-16T05:34:06;2.65;;;1.80;;
6823;SDS011;58633;49.470;11.004;2022-10-16T05:36:32;1.98;;;1.88;;
6823;SDS011;58633;49.470;11.004;2022-10-16T05:38:57;1.95;;;1.80;;
6823;SDS011;58633;49.470;11.004;2022-10-16T05:41:23;2.10;;;1.90;;
6823;SDS011;58633;49.470;11.004;2022-10-16T05:43:50;3.30;;;1.88;;
6823;SDS011;58633;49.470;11.004;2022-10-16T05:46:16;2.75;;;1.98;;
6823;SDS011;58633;49.470;11.004;2022-10-16T05:48:42;2.20;;;2.00;;
6823;SDS011;58633;49.470;11.004;2022-10-16T05:51:09;2.67;;;2.05;;
6823;SDS011;58633;49.470;11.004;2022-10-16T05:53:37;3.22;;;2.40;;
6823;SDS011;58633;49.470;11.004;2022-10-16T05:56:04;2.40;;;2.08;;
6823;SDS011;58633;49.470;11.004;2022-10-16T05:58:31;3.42;;;2.17;;
6823;SDS011;58633;49.470;11.004;2022-10-16T06:01:06;4.00;;;2.10;;
6823;SDS011;58633;49.470;11.004;2022-10-16T06:03:36;2.33;;;2.05;;
6823;SDS011;58633;49.470;11.004;2022-10-16T06:08:41;3.25;;;1.92;;
6823;SDS011;58633;49.470;11.004;2022-10-16T06:11:09;2.95;;;2.10;;
6823;SDS011;58633;49.470;11.004;2022-10-16T06:13:36;2.10;;;1.90;;
6823;SDS011;58633;49.470;11.004;2022-10-16T06:16:02;2.00;;;1.80;;
6823;SDS011;58633;49.470;11.004;2022-10-16T06:18:28;2.10;;;1.90;;
6823;SDS011;58633;49.470;11.004;2022-10-16T06:20:54;2.38;;;1.88;;
6823;SDS011;58633;49.470;11.004;2022-10-16T06:23:21;4.07;;;2.05;;
6823;SDS011;58633;49.470;11.004;2022-10-16T06:25:47;2.10;;;1.90;;
6823;SDS011;58633;49.470;11.004;2022-10-16T06:28:13;6.10;;;2.35;;
6823;SDS011;58633;49.470;11.004;2022-10-16T06:30:39;7.63;;;2.63;;
6823;SDS011;58633;49.470;11.004;2022-10-16T06:33:05;3.45;;;2.40;;
6823;SDS011;58633;49.470;11.004;2022-10-16T06:35:31;3.03;;;2.05;;
6823;SDS011;58633;49.470;11.004;2022-10-16T06:37:57;4.82;;;2.42;;
6823;SDS011;58633;49.470;11.004;2022-10-16T06:40:23;4.57;;;2.03;;
6823;SDS011;58633;49.470;11.004;2022-10-16T06:42:48;3.03;;;2.22;;
6823;SDS011;58633;49.470;11.004;2022-10-16T06:45:14;2.60;;;2.10;;
6823;SDS011;58633;49.470;11.004;2022-10-16T06:47:40;3.60;;;2.50;;
6823;SDS011;58633;49.470;11.004;2022-10-16T06:50:05;4.25;;;2.47;;
6823;SDS011;58633;49.470;11.004;2022-10-16T06:52:34;2.30;;;2.10;;
6823;SDS011;58633;49.470;11.004;2022-10-16T06:54:59;3.85;;;2.83;;
6823;SDS011;58633;49.470;11.004;2022-10-16T06:57:26;5.80;;;2.30;;
6823;SDS011;58633;49.470;11.004;2022-10-16T06:59:51;3.60;;;2.40;;
6823;SDS011;58633;49.470;11.004;2022-10-16T07:02:17;3.85;;;2.38;;
6823;SDS011;58633;49.470;11.004;2022-10-16T07:04:43;3.72;;;2.05;;
6823;SDS011;58633;49.470;11.004;2022-10-16T07:07:08;3.83;;;1.85;;
6823;SDS011;58633;49.470;11.004;2022-10-16T07:09:34;5.07;;;2.22;;
6823;SDS011;58633;49.470;11.004;2022-10-16T07:11:59;3.75;;;1.98;;
6823;SDS011;58633;49.470;11.004;2022-10-16T07:14:25;2.38;;;2.17;;
6823;SDS011;58633;49.470;11.004;2022-10-16T07:16:51;5.85;;;2.30;;
6823;SDS011;58633;49.470;11.004;2022-10-16T07:19:17;2.45;;;2.10;;
6823;SDS011;58633;49.470;11.004;2022-10-16T07:21:43;4.20;;;2.20;;
6823;SDS011;58633;49.470;11.004;2022-10-16T07:24:15;2.20;;;1.98;;
6823;SDS011;58633;49.470;11.004;2022-10-16T07:26:42;3.08;;;1.92;;
6823;SDS011;58633;49.470;11.004;2022-10-16T07:29:13;3.78;;;2.03;;
6823;SDS011;58633;49.470;11.004;2022-10-16T07:31:40;3.78;;;2.00;;
6823;SDS011;58633;49.470;11.004;2022-10-16T07:34:06;2.15;;;1.80;;
6823;SDS011;58633;49.470;11.004;2022-10-16T07:36:32;2.60;;;1.90;;
6823;SDS011;58633;49.470;11.004;2022-10-16T07:38:58;4.03;;;2.35;;
6823;SDS011;58633;49.470;11.004;2022-10-16T07:41:23;2.55;;;2.35;;
6823;SDS011;58633;49.470;11.004;2022-10-16T07:43:50;4.82;;;2.25;;
6823;SDS011;58633;49.470;11.004;2022-10-16T07:46:17;3.03;;;2.53;;
6823;SDS011;58633;49.470;11.004;2022-10-16T07:48:43;3.47;;;2.03;;
6823;SDS011;58633;49.470;11.004;2022-10-16T07:51:12;4.22;;;2.33;;
6823;SDS011;58633;49.470;11.004;2022-10-16T07:53:38;2.42;;;2.13;;
6823;SDS011;58633;49.470;11.004;2022-10-16T07:56:04;3.55;;;2.33;;
6823;SDS011;58633;49.470;11.004;2022-10-16T07:58:31;3.85;;;2.00;;
6823;SDS011;58633;49.470;11.004;2022-10-16T08:00:58;2.08;;;1.88;;
6823;SDS011;58633;49.470;11.004;2022-10-16T08:03:24;2.90;;;1.92;;
6823;SDS011;58633;49.470;11.004;2022-10-16T08:05:51;2.40;;;2.20;;
6823;SDS011;58633;49.470;11.004;2022-10-16T08:08:17;2.88;;;2.20;;
6823;SDS011;58633;49.470;11.004;2022-10-16T08:10:43;3.78;;;1.80;;
6823;SDS011;58633;49.470;11.004;2022-10-16T08:13:09;4.45;;;2.08;;
6823;SDS011;58633;49.470;11.004;2022-10-16T08:15:35;5.78;;;2.08;;
6823;SDS011;58633;49.470;11.004;2022-10-16T08:18:02;5.50;;;2.17;;
6823;SDS011;58633;49.470;11.004;2022-10-16T08:20:29;3.00;;;2.15;;
6823;SDS011;58633;49.470;11.004;2022-10-16T08:22:57;3.95;;;1.70;;
6823;SDS011;58633;49.470;11.004;2022-10-16T08:25:23;2.25;;;2.03;;
6823;SDS011;58633;49.470;11.004;2022-10-16T08:27:49;3.30;;;2.08;;
6823;SDS011;58633;49.470;11.004;2022-10-16T08:30:16;2.88;;;2.00;;
6823;SDS011;58633;49.470;11.004;2022-10-16T08:32:45;2.83;;;2.05;;
6823;SDS011;58633;49.470;11.004;2022-10-16T08:35:11;8.98;;;2.65;;
6823;SDS011;58633;49.470;11.004;2022-10-16T08:37:37;2.40;;;1.83;;
6823;SDS011;58633;49.470;11.004;2022-10-16T08:40:04;4.00;;;2.05;;
6823;SDS011;58633;49.470;11.004;2022-10-16T08:51:01;2.53;;;2.00;;
6823;SDS011;58633;49.470;11.004;2022-10-16T08:53:41;2.28;;;1.98;;
6823;SDS011;58633;49.470;11.004;2022-10-16T08:56:15;3.22;;;1.92;;
6823;SDS011;58633;49.470;11.004;2022-10-16T08:58:42;5.93;;;2.00;;
6823;SDS011;58633;49.470;11.004;2022-10-16T09:01:13;4.10;;;2.10;;
6823;SDS011;58633;49.470;11.004;2022-10-16T09:04:05;3.72;;;2.00;;
6823;SDS011;58633;49.470;11.004;2022-10-16T09:06:50;2.22;;;1.80;;
6823;SDS011;58633;49.470;11.004;2022-10-16T09:09:25;3.70;;;1.95;;
6823;SDS011;58633;49.470;11.004;2022-10-16T09:12:10;1.77;;;1.65;;
6823;SDS011;58633;49.470;11.004;2022-10-16T09:14:50;1.98;;;1.88;;
6823;SDS011;58633;49.470;11.004;2022-10-16T09:17:20;2.80;;;2.10;;
6823;SDS011;58633;49.470;11.004;2022-10-16T09:20:13;1.92;;;1.80;;
6823;SDS011;58633;49.470;11.004;2022-10-16T09:22:47;2.45;;;1.92;;
6823;SDS011;58633;49.470;11.004;2022-10-16T09:25:17;4.18;;;2.00;;
6823;SDS011;58633;49.470;11.004;2022-10-16T09:27:45;2.53;;;1.95;;
6823;SDS011;58633;49.470;11.004;2022-10-16T09:30:14;2.67;;;2.13;;
6823;SDS011;58633;49.470;11.004;2022-10-16T09:32:45;2.55;;;2.35;;
6823;SDS011;58633;49.470;11.004;2022-10-16T09:35:19;3.72;;;2.08;;
6823;SDS011;58633;49.470;11.004;2022-10-16T09:37:47;5.20;;;2.03;;
6823;SDS011;58633;49.470;11.004;2022-10-16T09:40:31;1.85;;;1.70;;
6823;SDS011;58633;49.470;11.004;2022-10-16T09:45:58;2.88;;;2.20;;
6823;SDS011;58633;49.470;11.004;2022-10-16T09:48:39;3.78;;;1.90;;
6823;SDS011;58633;49.470;11.004;2022-10-16T09:51:23;2.80;;;2.40;;
6823;SDS011;58633;49.470;11.004;2022-10-16T09:53:56;2.58;;;2.30;;
6823;SDS011;58633;49.470;11.004;2022-10-16T09:58:57;2.45;;;2.20;;
6823;SDS011;58633;49.470;11.004;2022-10-16T10:01:35;6.65;;;2.17;;
6823;SDS011;58633;49.470;11.004;2022-10-16T10:04:03;2.75;;;2.03;;
6823;SDS011;58633;49.470;11.004;2022-10-16T10:06:30;2.42;;;2.10;;
6823;SDS011;58633;49.470;11.004;2022-10-16T10:09:00;6.15;;;2.33;;
6823;SDS011;58633;49.470;11.004;2022-10-16T10:12:03;4.00;;;2.30;;
6823;SDS011;58633;49.470;11.004;2022-10-16T10:14:24;3.53;;;2.60;;
6823;SDS011;58633;49.470;11.004;2022-10-16T10:19:37;3.05;;;2.70;;
6823;SDS011;58633;49.470;11.004;2022-10-16T10:24:59;3.83;;;2.17;;
6823;SDS011;58633;49.470;11.004;2022-10-16T10:28:15;2.65;;;1.95;;
6823;SDS011;58633;49.470;11.004;2022-10-16T10:30:22;2.72;;;1.95;;
6823;SDS011;58633;49.470;11.004;2022-10-16T10:35:47;3.00;;;2.00;;
6823;SDS011;58633;49.470;11.004;2022-10-16T10:46:41;1.70;;;1.60;;
6823;SDS011;58633;49.470;11.004;2022-10-16T10:49:26;2.15;;;1.98;;
6823;SDS011;58633;49.470;11.004;2022-10-16T10:57:48;3.38;;;1.80;;
6823;SDS011;58633;49.470;11.004;2022-10-16T11:00:37;2.20;;;2.00;;
6823;SDS011;58633;49.470;11.004;2022-10-16T11:06:12;2.95;;;1.73;;
6823;SDS011;58633;49.470;11.004;2022-10-16T11:09:34;2.42;;;2.08;;
6823;SDS011;58633;49.470;11.004;2022-10-16T11:11:53;2.63;;;1.80;;
6823;SDS011;58633;49.470;11.004;2022-10-16T11:17:08;2.88;;;1.70;;
6823;SDS011;58633;49.470;11.004;2022-10-16T11:20:24;2.08;;;1.85;;
6823;SDS011;58633;49.470;11.004;2022-10-16T11:22:39;5.93;;;1.70;;
6823;SDS011;58633;49.470;11.004;2022-10-16T11:25:26;4.55;;;1.95;;
6823;SDS011;58633;49.470;11.004;2022-10-16T11:30:28;1.90;;;1.73;;
6823;SDS011;58633;49.470;11.004;2022-10-16T11:43:41;2.70;;;1.75;;
6823;SDS011;58633;49.470;11.004;2022-10-16T11:46:12;2.88;;;1.92;;
6823;SDS011;58633;49.470;11.004;2022-10-16T11:48:47;4.82;;;2.00;;
6823;SDS011;58633;49.470;11.004;2022-10-16T11:51:38;2.10;;;1.70;;
6823;SDS011;58633;49.470;11.004;2022-10-16T11:54:18;3.20;;;1.50;;
6823;SDS011;58633;49.470;11.004;2022-10-16T11:56:52;1.70;;;1.50;;
6823;SDS011;58633;49.470;11.004;2022-10-16T11:59:33;1.77;;;1.67;;
6823;SDS011;58633;49.470;11.004;2022-10-16T12:02:28;2.63;;;1.40;;
6823;SDS011;58633;49.470;11.004;2022-10-16T12:05:12;4.32;;;1.73;;
6823;SDS011;58633;49.470;11.004;2022-10-16T12:08:09;2.42;;;2.22;;
6823;SDS011;58633;49.470;11.004;2022-10-16T12:10:42;2.25;;;1.60;;
6823;SDS011;58633;49.470;11.004;2022-10-16T12:13:27;2.92;;;1.70;;
6823;SDS011;58633;49.470;11.004;2022-10-16T12:16:36;9.05;;;1.70;;
6823;SDS011;58633;49.470;11.004;2022-10-16T12:19:13;2.67;;;1.58;;
6823;SDS011;58633;49.470;11.004;2022-10-16T12:21:41;1.70;;;1.60;;
6823;SDS011;58633;49.470;11.004;2022-10-16T12:24:19;2.05;;;1.65;;
6823;SDS011;58633;49.470;11.004;2022-10-16T12:26:53;4.53;;;1.70;;
6823;SDS011;58633;49.470;11.004;2022-10-16T12:32:26;2.90;;;1.50;;
6823;SDS011;58633;49.470;11.004;2022-10-16T12:34:57;2.72;;;1.40;;
6823;SDS011;58633;49.470;11.004;2022-10-16T12:37:24;1.63;;;1.52;;
6823;SDS011;58633;49.470;11.004;2022-10-16T12:40:15;4.22;;;1.70;;
6823;SDS011;58633;49.470;11.004;2022-10-16T12:42:50;2.10;;;1.40;;
6823;SDS011;58633;49.470;11.004;2022-10-16T12:48:02;3.83;;;1.50;;
6823;SDS011;58633;49.470;11.004;2022-10-16T12:50:43;2.38;;;1.35;;
6823;SDS011;58633;49.470;11.004;2022-10-16T12:53:19;2.35;;;1.55;;
6823;SDS011;58633;49.470;11.004;2022-10-16T13:01:07;1.60;;;1.48;;
6823;SDS011;58633;49.470;11.004;2022-10-16T13:09:40;1.40;;;1.30;;
6823;SDS011;58633;49.470;11.004;2022-10-16T13:18:02;2.05;;;1.48;;
6823;SDS011;58633;49.470;11.004;2022-10-16T13:23:29;2.25;;;1.50;;
6823;SDS011;58633;49.470;11.004;2022-10-16T13:26:08;1.55;;;1.42;;
6823;SDS011;58633;49.470;11.004;2022-10-16T13:28:50;2.20;;;1.38;;
6823;SDS011;58633;49.470;11.004;2022-10-16T13:31:20;3.53;;;1.70;;
6823;SDS011;58633;49.470;11.004;2022-10-16T13:33:58;3.05;;;1.40;;
6823;SDS011;58633;49.470;11.004;2022-10-16T13:36:26;5.30;;;1.60;;
6823;SDS011;58633;49.470;11.004;2022-10-16T13:39:13;1.73;;;1.40;;
6823;SDS011;58633;49.470;11.004;2022-10-16T13:41:40;2.72;;;1.40;;
6823;SDS011;58633;49.470;11.004;2022-10-16T13:44:11;2.53;;;1.27;;
6823;SDS011;58633;49.470;11.004;2022-10-16T13:46:41;1.98;;;1.48;;
6823;SDS011;58633;49.470;11.004;2022-10-16T13:49:14;2.50;;;1.80;;
6823;SDS011;58633;49.470;11.004;2022-10-16T13:51:41;5.70;;;1.58;;
6823;SDS011;58633;49.470;11.004;2022-10-16T13:54:18;1.60;;;1.30;;
6823;SDS011;58633;49.470;11.004;2022-10-16T13:56:43;13.48;;;2.10;;
6823;SDS011;58633;49.470;11.004;2022-10-16T14:01:52;1.67;;;1.30;;
6823;SDS011;58633;49.470;11.004;2022-10-16T14:04:20;2.45;;;1.20;;
6823;SDS011;58633;49.470;11.004;2022-10-16T14:06:48;3.45;;;1.23;;
6823;SDS011;58633;49.470;11.004;2022-10-16T14:11:53;3.92;;;1.20;;
6823;SDS011;58633;49.470;11.004;2022-10-16T14:14:24;1.55;;;1.45;;
6823;SDS011;58633;49.470;11.004;2022-10-16T14:16:55;1.63;;;1.20;;
6823;SDS011;58633;49.470;11.004;2022-10-16T14:19:22;1.30;;;1.20;;
6823;SDS011;58633;49.470;11.004;2022-10-16T14:21:51;2.42;;;1.15;;
6823;SDS011;58633;49.470;11.004;2022-10-16T14:24:30;4.68;;;1.27;;
6823;SDS011;58633;49.470;11.004;2022-10-16T14:26:57;2.58;;;1.08;;
6823;SDS011;58633;49.470;11.004;2022-10-16T14:29:24;1.95;;;1.40;;
6823;SDS011;58633;49.470;11.004;2022-10-16T14:32:02;1.42;;;1.30;;
6823;SDS011;58633;49.470;11.004;2022-10-16T14:34:31;2.08;;;1.10;;
6823;SDS011;58633;49.470;11.004;2022-10-16T14:37:01;3.00;;;1.17;;
6823;SDS011;58633;49.470;11.004;2022-10-16T14:39:50;4.63;;;1.77;;
6823;SDS011;58633;49.470;11.004;2022-10-16T14:42:17;2.28;;;1.35;;
6823;SDS011;58633;49.470;11.004;2022-10-16T14:44:44;2.88;;;1.75;;
6823;SDS011;58633;49.470;11.004;2022-10-16T14:47:16;1.63;;;1.50;;
6823;SDS011;58633;49.470;11.004;2022-10-16T14:49:48;1.67;;;1.00;;
6823;SDS011;58633;49.470;11.004;2022-10-16T14:52:14;1.42;;;1.33;;
6823;SDS011;58633;49.470;11.004;2022-10-16T14:54:40;2.25;;;1.60;;
6823;SDS011;58633;49.470;11.004;2022-10-16T14:57:12;3.78;;;1.55;;
6823;SDS011;58633;49.470;11.004;2022-10-16T14:59:43;5.47;;;1.30;;
6823;SDS011;58633;49.470;11.004;2022-10-16T15:02:27;4.45;;;1.80;;
6823;SDS011;58633;49.470;11.004;2022-10-16T15:04:54;3.40;;;1.40;;
6823;SDS011;58633;49.470;11.004;2022-10-16T15:07:21;1.42;;;1.33;;
6823;SDS011;58633;49.470;11.004;2022-10-16T15:09:46;3.10;;;1.50;;
6823;SDS011;58633;49.470;11.004;2022-10-16T15:12:12;3.38;;;1.77;;
6823;SDS011;58633;49.470;11.004;2022-10-16T15:14:38;6.53;;;1.40;;
6823;SDS011;58633;49.470;11.004;2022-10-16T15:17:03;3.03;;;1.80;;
6823;SDS011;58633;49.470;11.004;2022-10-16T15:19:29;2.03;;;1.70;;
6823;SDS011;58633;49.470;11.004;2022-10-16T15:21:55;3.00;;;1.55;;
6823;SDS011;58633;49.470;11.004;2022-10-16T15:24:21;2.08;;;1.58;;
6823;SDS011;58633;49.470;11.004;2022-10-16T15:26:47;2.13;;;1.45;;
6823;SDS011;58633;49.470;11.004;2022-10-16T15:29:13;4.20;;;1.70;;
6823;SDS011;58633;49.470;11.004;2022-10-16T15:31:39;2.70;;;1.60;;
6823;SDS011;58633;49.470;11.004;2022-10-16T15:34:08;1.65;;;1.42;;
6823;SDS011;58633;49.470;11.004;2022-10-16T15:36:35;3.13;;;1.80;;
6823;SDS011;58633;49.470;11.004;2022-10-16T15:39:02;1.55;;;1.45;;
6823;SDS011;58633;49.470;11.004;2022-10-16T15:41:29;2.20;;;2.00;;
6823;SDS011;58633;49.470;11.004;2022-10-16T15:43:55;2.47;;;1.88;;
6823;SDS011;58633;49.470;11.004;2022-10-16T15:46:21;2.20;;;2.00;;
6823;SDS011;58633;49.470;11.004;2022-10-16T15:48:51;1.80;;;1.60;;
6823;SDS011;58633;49.470;11.004;2022-10-16T15:51:22;5.20;;;1.70;;
6823;SDS011;58633;49.470;11.004;2022-10-16T15:53:47;2.55;;;2.03;;
6823;SDS011;58633;49.470;11.004;2022-10-16T15:56:13;3.60;;;2.45;;
6823;SDS011;58633;49.470;11.004;2022-10-16T15:58:39;7.30;;;3.30;;
6823;SDS011;58633;49.470;11.004;2022-10-16T16:01:05;4.00;;;2.30;;
6823;SDS011;58633;49.470;11.004;2022-10-16T16:03:32;2.30;;;2.08;;
6823;SDS011;58633;49.470;11.004;2022-10-16T16:05:58;2.17;;;1.98;;
6823;SDS011;58633;49.470;11.004;2022-10-16T16:08:29;6.53;;;4.30;;
6823;SDS011;58633;49.470;11.004;2022-10-16T16:11:28;3.90;;;2.78;;
6823;SDS011;58633;49.470;11.004;2022-10-16T16:13:48;2.15;;;1.70;;
6823;SDS011;58633;49.470;11.004;2022-10-16T16:16:16;2.78;;;2.10;;
6823;SDS011;58633;49.470;11.004;2022-10-16T16:18:42;4.05;;;1.77;;
6823;SDS011;58633;49.470;11.004;2022-10-16T16:21:10;4.15;;;2.25;;
6823;SDS011;58633;49.470;11.004;2022-10-16T16:23:36;2.47;;;1.88;;
6823;SDS011;58633;49.470;11.004;2022-10-16T16:26:06;3.00;;;2.20;;
6823;SDS011;58633;49.470;11.004;2022-10-16T16:28:35;3.70;;;2.35;;
6823;SDS011;58633;49.470;11.004;2022-10-16T16:31:02;2.70;;;1.80;;
6823;SDS011;58633;49.470;11.004;2022-10-16T16:33:28;2.28;;;1.80;;
6823;SDS011;58633;49.470;11.004;2022-10-16T16:35:59;2.22;;;2.03;;
6823;SDS011;58633;49.470;11.004;2022-10-16T16:38:26;3.97;;;2.65;;
6823;SDS011;58633;49.470;11.004;2022-10-16T16:40:52;2.78;;;2.35;;
6823;SDS011;58633;49.470;11.004;2022-10-16T16:43:18;5.03;;;3.17;;
6823;SDS011;58633;49.470;11.004;2022-10-16T16:45:44;3.53;;;2.33;;